createdAt,value
2022-07-25T00:01:32.503Z,99111.66
2022-07-25T00:04:19.635Z,99104.84
2022-07-25T00:07:08.061Z,99100.63
2022-07-25T00:09:55.284Z,99099.03
2022-07-25T00:12:43.628Z,99093.16
2022-07-25T00:15:30.963Z,99092.38
2022-07-25T00:18:18.171Z,99090.94
2022-07-25T00:21:06.037Z,99077.16
2022-07-25T00:23:54.797Z,99089.31
2022-07-25T00:26:42.155Z,99084.47
2022-07-25T00:29:29.123Z,99069.84
2022-07-25T00:32:16.402Z,99074.41
2022-07-25T00:35:03.493Z,99076.38
2022-07-25T00:37:50.653Z,99076.50
2022-07-25T00:40:39.362Z,99070.53
2022-07-25T00:43:26.734Z,99074.09
2022-07-25T00:46:15.279Z,99074.25
2022-07-25T00:49:06.174Z,99070.03
2022-07-25T00:51:54.186Z,99072.63
2022-07-25T00:54:41.475Z,99059.84
2022-07-25T00:57:30.325Z,99062.44
2022-07-25T01:00:19.087Z,99063.41
2022-07-25T01:03:06.174Z,99047.19
2022-07-25T01:05:54.086Z,99042.00
2022-07-25T01:08:41.490Z,99045.56
2022-07-25T01:11:29.963Z,99043.94
2022-07-25T01:14:18.706Z,99033.75
2022-07-25T01:17:05.819Z,99025.16
2022-07-25T01:19:53.766Z,99021.91
2022-07-25T01:22:42.500Z,99024.69
2022-07-25T01:25:30.339Z,99013.50
2022-07-25T01:28:18.373Z,99011.88
2022-07-25T01:31:06.177Z,99010.25
2022-07-25T01:33:53.265Z,99001.84
2022-07-25T01:36:40.602Z,98995.84
2022-07-25T01:39:29.248Z,99006.03
2022-07-25T01:42:16.598Z,98997.63
2022-07-25T01:45:04.690Z,98983.03
2022-07-25T01:47:54.821Z,98992.63
2022-07-25T01:50:42.288Z,98983.38
2022-07-25T01:53:29.725Z,98978.38
2022-07-25T01:56:19.431Z,98985.31
2022-07-25T01:59:09.881Z,98989.53
2022-07-25T02:01:57.319Z,98981.94
2022-07-25T02:04:44.669Z,98985.31
2022-07-25T02:07:32.265Z,98981.94
2022-07-25T02:10:19.538Z,98977.72
2022-07-25T02:13:08.380Z,98976.91
2022-07-25T02:15:55.537Z,98980.47
2022-07-25T02:18:42.754Z,98970.09
2022-07-25T02:21:29.845Z,98970.28
2022-07-25T02:24:16.926Z,98972.03
2022-07-25T02:27:04.589Z,98976.63
2022-07-25T02:29:53.046Z,98971.25
2022-07-25T02:32:40.363Z,98967.03
2022-07-25T02:35:28.063Z,98976.63
2022-07-25T02:38:19.629Z,98975.97
2022-07-25T02:41:07.359Z,98975.16
2022-07-25T02:43:54.451Z,98973.53
2022-07-25T02:46:42.868Z,98966.75
2022-07-25T02:49:30.374Z,98967.56
2022-07-25T02:52:17.424Z,98962.53
2022-07-25T02:55:09.285Z,98964.31
2022-07-25T02:57:57.015Z,98961.09
2022-07-25T03:00:44.319Z,98961.09
2022-07-25T03:03:33.225Z,98964.66
2022-07-25T03:06:20.476Z,98954.28
2022-07-25T03:09:07.832Z,98954.28
2022-07-25T03:11:55.372Z,98955.44
2022-07-25T03:14:42.831Z,98951.06
2022-07-25T03:17:30.493Z,98948.63
2022-07-25T03:20:19.010Z,98940.84
2022-07-25T03:23:06.502Z,98948.78
2022-07-25T03:25:53.903Z,98952.38
2022-07-25T03:28:41.021Z,98954.16
2022-07-25T03:31:28.681Z,98947.34
2022-07-25T03:34:16.179Z,98944.13
2022-07-25T03:37:05.906Z,98942.69
2022-07-25T03:39:53.072Z,98942.69
2022-07-25T03:42:40.417Z,98943.03
2022-07-25T03:45:27.846Z,98944.78
2022-07-25T03:48:14.879Z,98943.19
2022-07-25T03:51:06.550Z,98937.19
2022-07-25T03:54:05.411Z,98933.97
2022-07-25T03:56:53.360Z,98932.34
2022-07-25T03:59:40.924Z,98935.91
2022-07-25T04:02:28.474Z,98937.72
2022-07-25T04:05:15.924Z,98929.94
2022-07-25T04:08:03.186Z,98938.50
2022-07-25T04:10:53.191Z,98935.13
2022-07-25T04:13:40.591Z,98935.28
2022-07-25T04:16:28.148Z,98930.09
2022-07-25T04:19:15.645Z,98926.69
2022-07-25T04:22:04.233Z,98924.91
2022-07-25T04:24:51.446Z,98915.50
2022-07-25T04:27:41.083Z,98930.28
2022-07-25T04:30:28.173Z,98925.09
2022-07-25T04:33:16.564Z,98924.22
2022-07-25T04:36:04.105Z,98924.22
2022-07-25T04:38:51.565Z,98917.41
2022-07-25T04:41:38.618Z,98914.53
2022-07-25T04:44:27.307Z,98911.13
2022-07-25T04:47:14.527Z,98911.94
2022-07-25T04:50:01.659Z,98903.16
2022-07-25T04:52:49.055Z,98909.97
2022-07-25T04:55:36.411Z,98910.63
2022-07-25T04:58:23.931Z,98910.44
2022-07-25T05:01:12.817Z,98903.47
2022-07-25T05:04:00.029Z,98906.06
2022-07-25T05:06:47.583Z,98905.09
2022-07-25T05:09:35.085Z,98906.38
2022-07-25T05:12:22.473Z,98894.19
2022-07-25T05:15:11.169Z,98904.25
2022-07-25T05:17:59.961Z,98905.84
2022-07-25T05:20:47.547Z,98902.09
2022-07-25T05:23:34.721Z,98902.75
2022-07-25T05:26:21.808Z,98901.78
2022-07-25T05:29:10.349Z,98902.38
2022-07-25T05:31:57.536Z,98908.22
2022-07-25T05:34:45.978Z,98906.44
2022-07-25T05:37:33.373Z,98900.09
2022-07-25T05:40:20.737Z,98903.31
2022-07-25T05:43:07.932Z,98909.16
2022-07-25T05:45:55.246Z,98904.44
2022-07-25T05:48:42.556Z,98899.06
2022-07-25T05:51:31.423Z,98886.69
2022-07-25T05:54:19.082Z,98882.78
2022-07-25T05:57:06.472Z,98884.22
2022-07-25T05:59:53.836Z,98886.47
2022-07-25T06:02:41.339Z,98883.53
2022-07-25T06:05:29.113Z,98880.59
2022-07-25T06:08:17.975Z,98875.88
2022-07-25T06:11:06.187Z,98869.66
2022-07-25T06:13:55.768Z,98868.34
2022-07-25T06:16:43.653Z,98871.56
2022-07-25T06:19:30.875Z,98866.06
2022-07-25T06:22:19.653Z,98875.28
2022-07-25T06:25:09.785Z,98875.09
2022-07-25T06:27:56.794Z,98876.38
2022-07-25T06:30:44.485Z,98879.44
2022-07-25T06:33:31.602Z,98861.06
2022-07-25T06:36:18.893Z,98861.53
2022-07-25T06:39:06.041Z,98869.75
2022-07-25T06:41:54.910Z,98861.63
2022-07-25T06:44:42.119Z,98861.28
2022-07-25T06:47:35.535Z,98858.50
2022-07-25T06:50:23.517Z,98858.97
2022-07-25T06:53:10.727Z,98856.97
2022-07-25T06:55:58.001Z,98853.03
2022-07-25T06:58:46.665Z,98855.09
2022-07-25T07:01:34.132Z,98853.13
2022-07-25T07:04:21.121Z,98842.22
2022-07-25T07:07:08.282Z,98845.41
2022-07-25T07:09:55.690Z,98851.25
2022-07-25T07:12:42.928Z,98850.09
2022-07-25T07:15:31.661Z,98855.13
2022-07-25T07:18:19.354Z,98862.53
2022-07-25T07:21:07.828Z,98852.94
2022-07-25T07:23:55.206Z,98850.16
2022-07-25T07:26:44.259Z,98850.63
2022-07-25T07:29:31.485Z,98834.84
2022-07-25T07:32:20.138Z,98848.66
2022-07-25T07:35:08.457Z,98841.50
2022-07-25T07:37:55.942Z,98837.94
2022-07-25T07:40:42.993Z,98854.94
2022-07-25T07:43:31.958Z,98846.97
2022-07-25T07:46:19.318Z,98844.97
2022-07-25T07:49:08.025Z,98856.03
2022-07-25T07:51:55.191Z,98849.66
2022-07-25T07:55:00.043Z,98848.31
2022-07-25T07:57:47.104Z,98847.31
2022-07-25T08:00:36.376Z,98845.34
2022-07-25T08:03:23.814Z,98847.56
2022-07-25T08:06:12.709Z,98840.41
2022-07-25T08:08:59.791Z,98843.44
2022-07-25T08:11:47.088Z,98847.44
2022-07-25T08:14:34.773Z,98848.72
2022-07-25T08:17:28.192Z,98848.34
2022-07-25T08:20:36.921Z,98847.97
2022-07-25T08:23:27.774Z,98858.66
2022-07-25T08:26:15.914Z,98849.50
2022-07-25T08:29:18.239Z,98855.94
2022-07-25T08:32:07.465Z,98860.75
2022-07-25T08:34:54.863Z,98856.00
2022-07-25T08:37:41.931Z,98859.03
2022-07-25T08:40:32.628Z,98858.53
2022-07-25T08:43:20.932Z,98853.94
2022-07-25T08:46:08.899Z,98852.75
2022-07-25T08:48:56.775Z,98854.38
2022-07-25T08:51:44.217Z,98849.81
2022-07-25T08:54:32.833Z,98852.22
2022-07-25T08:57:22.520Z,98852.03
2022-07-25T09:00:11.984Z,98857.84
2022-07-25T09:03:01.923Z,98847.22
2022-07-25T09:05:49.633Z,98860.88
2022-07-25T09:08:36.759Z,98846.69
2022-07-25T09:11:36.962Z,98841.31
2022-07-25T09:14:25.692Z,98843.09
2022-07-25T09:17:22.198Z,98828.72
2022-07-25T09:20:15.328Z,98830.94
2022-07-25T09:23:05.873Z,98828.94
2022-07-25T09:25:53.135Z,98831.41
2022-07-25T09:28:43.148Z,98825.00
2022-07-25T09:31:35.612Z,98819.41
2022-07-25T09:34:38.486Z,98819.41
2022-07-25T09:37:28.463Z,98811.81
2022-07-25T09:40:16.810Z,98817.81
2022-07-25T09:43:04.281Z,98817.81
2022-07-25T09:45:52.856Z,98815.00
2022-07-25T09:48:45.815Z,98820.03
2022-07-25T09:51:34.013Z,98812.66
2022-07-25T09:54:21.483Z,98811.47
2022-07-25T09:57:08.882Z,98811.09
2022-07-25T09:59:56.194Z,98801.31
2022-07-25T10:02:51.715Z,98793.09
2022-07-25T10:06:02.523Z,98789.50
2022-07-25T10:08:50.977Z,98790.75
2022-07-25T10:11:38.359Z,98782.75
2022-07-25T10:14:25.436Z,98781.56
2022-07-25T10:17:24.955Z,98780.22
2022-07-25T10:20:13.159Z,98784.03
2022-07-25T10:23:01.990Z,98774.84
2022-07-25T10:26:00.044Z,98772.66
2022-07-25T10:28:50.356Z,98772.09
2022-07-25T10:31:39.856Z,98767.31
2022-07-25T10:34:31.785Z,98770.13
2022-07-25T10:37:21.184Z,98773.16
2022-07-25T10:40:12.006Z,98770.97
2022-07-25T10:43:05.550Z,98769.16
2022-07-25T10:45:55.704Z,98782.00
2022-07-25T10:48:43.391Z,98767.78
2022-07-25T10:51:37.087Z,98756.97
2022-07-25T10:54:34.813Z,98757.41
2022-07-25T10:57:26.152Z,98763.19
2022-07-25T11:00:16.962Z,98770.84
2022-07-25T11:03:05.633Z,98753.41
2022-07-25T11:05:54.751Z,98750.59
2022-07-25T11:08:42.534Z,98745.19
2022-07-25T11:11:38.106Z,98745.63
2022-07-25T11:14:32.895Z,98737.00
2022-07-25T11:17:22.852Z,98743.81
2022-07-25T11:20:13.456Z,98733.16
2022-07-25T11:23:00.639Z,98733.59
2022-07-25T11:25:47.748Z,98725.59
2022-07-25T11:28:46.595Z,98722.00
2022-07-25T11:31:35.842Z,98723.44
2022-07-25T11:34:26.411Z,98735.28
2022-07-25T11:37:16.443Z,98739.50
2022-07-25T11:40:04.713Z,98730.66
2022-07-25T11:42:54.289Z,98729.66
2022-07-25T11:45:42.031Z,98719.44
2022-07-25T11:48:40.012Z,98733.25
2022-07-25T11:51:27.220Z,98739.50
2022-07-25T11:54:15.156Z,98737.88
2022-07-25T11:57:02.103Z,98735.06
2022-07-25T11:59:49.259Z,98737.47
2022-07-25T12:02:37.570Z,98725.44
2022-07-25T12:05:34.255Z,98718.44
2022-07-25T12:08:23.953Z,98726.25
2022-07-25T12:11:23.573Z,98719.22
2022-07-25T12:14:21.885Z,98723.44
2022-07-25T12:17:09.440Z,98725.06
2022-07-25T12:19:56.450Z,98726.28
2022-07-25T12:22:45.700Z,98720.66
2022-07-25T12:25:34.030Z,98714.03
2022-07-25T12:28:21.637Z,98716.25
2022-07-25T12:31:10.133Z,98713.06
2022-07-25T12:33:57.361Z,98709.22
2022-07-25T12:36:45.382Z,98707.88
2022-07-25T12:39:34.189Z,98694.81
2022-07-25T12:42:21.993Z,98696.63
2022-07-25T12:45:10.773Z,98686.19
2022-07-25T12:47:58.374Z,98680.16
2022-07-25T12:50:46.281Z,98678.75
2022-07-25T12:53:33.463Z,98676.16
2022-07-25T12:56:22.065Z,98671.16
2022-07-25T12:59:09.661Z,98678.78
2022-07-25T13:01:57.609Z,98680.38
2022-07-25T13:04:45.032Z,98668.94
2022-07-25T13:07:33.654Z,98658.91
2022-07-25T13:10:21.527Z,98666.13
2022-07-25T13:13:10.375Z,98661.31
2022-07-25T13:15:57.417Z,98671.34
2022-07-25T13:18:45.308Z,98658.72
2022-07-25T13:21:32.620Z,98668.16
2022-07-25T13:24:19.737Z,98656.88
2022-07-25T13:27:07.230Z,98666.53
2022-07-25T13:29:56.205Z,98668.97
2022-07-25T13:32:43.707Z,98681.03
2022-07-25T13:35:36.499Z,98686.03
2022-07-25T13:38:26.022Z,98682.63
2022-07-25T13:41:13.540Z,98684.00
2022-07-25T13:44:00.736Z,98687.44
2022-07-25T13:46:50.428Z,98681.41
2022-07-25T13:49:38.196Z,98682.44
2022-07-25T13:52:25.631Z,98676.59
2022-07-25T13:55:12.756Z,98676.97
2022-07-25T13:58:00.131Z,98667.94
2022-07-25T14:00:47.647Z,98672.53
2022-07-25T14:03:36.894Z,98670.34
2022-07-25T14:06:24.324Z,98682.19
2022-07-25T14:09:12.081Z,98680.19
2022-07-25T14:11:59.378Z,98682.38
2022-07-25T14:14:46.780Z,98675.75
2022-07-25T14:17:34.657Z,98677.34
2022-07-25T14:20:23.216Z,98676.13
2022-07-25T14:23:10.771Z,98674.94
2022-07-25T14:25:59.166Z,98665.91
2022-07-25T14:28:46.364Z,98670.50
2022-07-25T14:31:34.042Z,98667.31
2022-07-25T14:34:21.553Z,98677.09
2022-07-25T14:37:10.384Z,98665.09
2022-07-25T14:39:57.763Z,98667.69
2022-07-25T14:42:45.220Z,98676.13
2022-07-25T14:45:32.493Z,98682.94
2022-07-25T14:48:19.654Z,98687.75
2022-07-25T14:51:08.211Z,98681.53
2022-07-25T14:53:56.874Z,98666.50
2022-07-25T14:56:44.654Z,98672.31
2022-07-25T14:59:32.121Z,98675.72
2022-07-25T15:02:19.573Z,98680.16
2022-07-25T15:05:08.234Z,98675.72
2022-07-25T15:07:55.496Z,98672.13
2022-07-25T15:10:44.471Z,98668.53
2022-07-25T15:13:32.374Z,98664.09
2022-07-25T15:16:20.099Z,98659.50
2022-07-25T15:19:26.149Z,98664.50
2022-07-25T15:22:13.884Z,98661.09
2022-07-25T15:28:09.895Z,98638.81
2022-07-25T15:30:57.631Z,98643.66
2022-07-25T15:33:45.111Z,98641.63
2022-07-25T15:36:32.636Z,98628.41
2022-07-25T15:39:19.666Z,98634.44
2022-07-25T15:42:07.656Z,98624.00
2022-07-25T15:45:22.073Z,98631.81
2022-07-25T15:48:03.861Z,98634.63
2022-07-25T15:50:52.541Z,98630.00
2022-07-25T15:53:39.837Z,98619.38
2022-07-25T15:56:27.033Z,98609.56
2022-07-25T15:59:15.021Z,98619.00
2022-07-25T16:02:08.447Z,98605.53
2022-07-25T16:04:55.514Z,98598.72
2022-07-25T16:07:43.412Z,98595.09
2022-07-25T16:10:32.732Z,98607.94
2022-07-25T16:13:19.903Z,98599.91
2022-07-25T16:16:07.832Z,98599.50
2022-07-25T16:18:56.541Z,98607.16
2022-07-25T16:21:43.586Z,98611.13
2022-07-25T16:24:30.743Z,98615.97
2022-07-25T16:27:19.377Z,98626.22
2022-07-25T16:30:07.965Z,98627.84
2022-07-25T16:32:55.567Z,98626.81
2022-07-25T16:35:44.343Z,98648.50
2022-07-25T16:38:31.960Z,98650.09
2022-07-25T16:41:18.959Z,98651.69
2022-07-25T16:44:06.518Z,98666.97
2022-07-25T16:46:54.143Z,98667.78
2022-07-25T16:49:41.696Z,98673.78
2022-07-25T16:52:30.423Z,98673.00
2022-07-25T16:55:17.901Z,98682.63
2022-07-25T16:58:05.161Z,98685.25
2022-07-25T17:00:52.707Z,98693.25
2022-07-25T17:03:40.088Z,98703.91
2022-07-25T17:06:27.622Z,98716.94
2022-07-25T17:09:16.969Z,98711.91
2022-07-25T17:12:05.927Z,98717.34
2022-07-25T17:14:53.220Z,98715.94
2022-07-25T17:17:40.439Z,98713.50
2022-07-25T17:20:27.765Z,98721.72
2022-07-25T17:23:15.196Z,98725.34
2022-07-25T17:26:05.278Z,98721.13
2022-07-25T17:28:53.700Z,98738.78
2022-07-25T17:31:40.937Z,98751.22
2022-07-25T17:34:28.386Z,98755.84
2022-07-25T17:37:15.773Z,98750.78
2022-07-25T17:40:03.545Z,98753.00
2022-07-25T17:42:51.903Z,98766.47
2022-07-25T17:45:39.827Z,98768.44
2022-07-25T17:48:27.087Z,98771.25
2022-07-25T17:51:14.827Z,98766.25
2022-07-25T17:54:02.353Z,98770.84
2022-07-25T17:56:50.232Z,98768.44
2022-07-25T17:59:39.108Z,98771.25
2022-07-25T18:02:26.370Z,98775.84
2022-07-25T18:05:13.406Z,98778.44
2022-07-25T18:08:02.876Z,98784.06
2022-07-25T18:10:50.950Z,98781.44
2022-07-25T18:13:38.543Z,98786.06
2022-07-25T18:16:27.688Z,98793.06
2022-07-25T18:19:15.123Z,98797.50
2022-07-25T18:22:04.951Z,98790.88
2022-07-25T18:24:52.160Z,98806.50
2022-07-25T18:27:41.704Z,98805.09
2022-07-25T18:30:29.451Z,98816.50
2022-07-25T18:33:19.199Z,98828.75
2022-07-25T18:36:07.956Z,98825.72
2022-07-25T18:38:55.764Z,98824.94
2022-07-25T18:41:42.897Z,98838.16
2022-07-25T18:44:31.663Z,98846.00
2022-07-25T18:47:23.354Z,98843.78
2022-07-25T18:50:14.471Z,98836.13
2022-07-25T18:53:02.190Z,98843.34
2022-07-25T18:55:49.710Z,98847.13
2022-07-25T18:58:37.089Z,98847.34
2022-07-25T19:01:24.328Z,98850.91
2022-07-25T19:04:11.566Z,98858.13
2022-07-25T19:07:00.487Z,98865.13
2022-07-25T19:09:47.644Z,98867.94
2022-07-25T19:12:35.090Z,98873.34
2022-07-25T19:15:22.720Z,98890.94
2022-07-25T19:18:10.147Z,98881.75
2022-07-25T19:20:58.681Z,98887.13
2022-07-25T19:23:50.927Z,98905.38
2022-07-25T19:26:39.402Z,98916.97
2022-07-25T19:29:26.967Z,98922.38
2022-07-25T19:32:16.169Z,98930.19
2022-07-25T19:35:07.809Z,98934.19
2022-07-25T19:37:55.031Z,98937.81
2022-07-25T19:40:47.640Z,98933.56
2022-07-25T19:43:35.164Z,98947.78
2022-07-25T19:46:22.643Z,98937.56
2022-07-25T19:49:09.949Z,98943.75
2022-07-25T19:51:57.717Z,98945.75
2022-07-25T19:54:44.944Z,98953.75
2022-07-25T19:57:33.487Z,98952.16
2022-07-25T20:00:20.714Z,98955.75
2022-07-25T20:03:08.131Z,98968.13
2022-07-25T20:05:55.597Z,98947.47
2022-07-25T20:08:42.935Z,98950.28
2022-07-25T20:11:30.435Z,98955.69
2022-07-25T20:14:19.048Z,98958.47
2022-07-25T20:17:06.321Z,98961.28
2022-07-25T20:19:53.988Z,98967.47
2022-07-25T20:22:42.066Z,98976.28
2022-07-25T20:25:30.271Z,98979.88
2022-07-25T20:28:17.688Z,98983.66
2022-07-25T20:31:06.692Z,98996.88
2022-07-25T20:33:54.694Z,98991.84
2022-07-25T20:36:42.311Z,99003.25
2022-07-25T20:39:29.786Z,98998.22
2022-07-25T20:42:17.260Z,99013.25
2022-07-25T20:45:05.160Z,99022.06
2022-07-25T20:47:54.098Z,99030.06
2022-07-25T20:50:41.879Z,99032.22
2022-07-25T20:53:29.530Z,99040.03
2022-07-25T20:56:16.415Z,99044.59
2022-07-25T20:59:04.359Z,99043.97
2022-07-25T21:01:54.493Z,99057.97
2022-07-25T21:04:43.375Z,99058.16
2022-07-25T21:07:30.363Z,99058.34
2022-07-25T21:10:18.239Z,99067.31
2022-07-25T21:13:06.235Z,99068.34
2022-07-25T21:15:53.484Z,99069.31
2022-07-25T21:18:40.859Z,99069.50
2022-07-25T21:21:29.661Z,99067.88
2022-07-25T21:24:17.012Z,99066.25
2022-07-25T21:27:04.736Z,99062.22
2022-07-25T21:29:52.071Z,99062.22
2022-07-25T21:32:40.845Z,99077.22
2022-07-25T21:35:28.040Z,99070.59
2022-07-25T21:38:26.713Z,99074.19
2022-07-25T21:41:15.435Z,99073.56
2022-07-25T21:44:02.825Z,99074.56
2022-07-25T21:46:50.169Z,99078.13
2022-07-25T21:49:55.625Z,99085.94
2022-07-25T21:52:44.533Z,99080.13
2022-07-25T21:55:33.213Z,99083.72
2022-07-25T21:58:21.629Z,99078.84
2022-07-25T22:01:10.139Z,99078.06
2022-07-25T22:03:57.986Z,99077.25
2022-07-25T22:06:45.509Z,99069.63
2022-07-25T22:09:33.220Z,99069.63
2022-07-25T22:12:21.905Z,99064.56
2022-07-25T22:15:12.323Z,99064.75
2022-07-25T22:17:59.899Z,99068.38
2022-07-25T22:20:47.044Z,99072.75
2022-07-25T22:23:34.050Z,99072.94
2022-07-25T22:26:23.979Z,99073.91
2022-07-25T22:29:12.699Z,99075.72
2022-07-25T22:32:00.707Z,99084.72
2022-07-25T22:34:48.002Z,99099.53
2022-07-25T22:37:35.098Z,99104.88
2022-07-25T22:40:22.561Z,99112.88
2022-07-25T22:43:09.790Z,99119.09
2022-07-25T22:45:58.563Z,99110.63
2022-07-25T22:48:45.808Z,99109.84
2022-07-25T22:51:32.847Z,99114.22
2022-07-25T22:54:20.035Z,99119.44
2022-07-25T22:57:07.134Z,99115.22
2022-07-25T22:59:54.370Z,99112.63
2022-07-25T23:02:43.032Z,99106.59
2022-07-25T23:05:30.577Z,99113.59
2022-07-25T23:08:18.056Z,99119.59
2022-07-25T23:11:06.257Z,99107.75
2022-07-25T23:13:53.831Z,99114.59
2022-07-25T23:16:41.002Z,99116.41
2022-07-25T23:19:29.569Z,99105.16
2022-07-25T23:22:17.247Z,99112.16
2022-07-25T23:25:05.546Z,99111.38
2022-07-25T23:27:52.918Z,99115.75
2022-07-25T23:30:40.776Z,99105.53
2022-07-25T23:33:27.926Z,99125.38
2022-07-25T23:36:18.021Z,99123.75
2022-07-25T23:39:05.998Z,99128.94
2022-07-25T23:41:53.810Z,99129.31
2022-07-25T23:44:42.130Z,99140.34
2022-07-25T23:47:39.398Z,99129.31
2022-07-25T23:50:28.028Z,99126.84
2022-07-25T23:53:16.794Z,99138.09
2022-07-25T23:56:04.433Z,99139.03
2022-07-25T23:58:51.836Z,99135.81
